Time;durP1;ratioP1;P1;durP2;ratioP2;P2;SDS_P1;SDS_P2;PMS_P1;PMS_P2;Temp;Humidity;BMP_temperature;BMP_pressure;BME280_temperature;BME280_humidity;BME280_pressure;Samples;Min_cycle;Max_cycle;Signal;HPM_P1;HPM_P2
2022/03/24 00:00:07;;;;;;;59.28;32.08;;;;;;;5.62;64.95;102915.31;5115290;28;20073;-72
2022/03/24 00:02:34;;;;;;;55.28;32.63;;;;;;;5.58;64.32;102926.44;5113921;28;20443;-72
2022/03/24 00:04:59;;;;;;;54.42;32.22;;;;;;;5.55;63.68;102924.63;5114934;27;20107;-72
2022/03/24 00:07:24;;;;;;;62.08;33.25;;;;;;;5.49;64.62;102916.66;5114770;28;20185;-72
2022/03/24 00:09:50;;;;;;;60.88;33.17;;;;;;;5.43;64.93;102913.91;5114038;28;20391;-72
2022/03/24 00:12:16;;;;;;;60.47;33.03;;;;;;;5.40;64.89;102913.81;5114667;27;20031;-73
2022/03/24 00:14:42;;;;;;;57.20;33.10;;;;;;;5.37;65.07;102914.59;5113802;28;20016;-72
2022/03/24 00:17:07;;;;;;;54.95;32.08;;;;;;;5.36;66.13;102912.84;5115064;28;20081;-72
2022/03/24 00:19:32;;;;;;;54.13;31.08;;;;;;;5.40;67.06;102919.88;5114376;28;20092;-72
2022/03/24 00:21:57;;;;;;;55.65;31.02;;;;;;;5.33;66.33;102912.75;5114088;28;20391;-72
2022/03/24 00:24:23;;;;;;;59.20;32.10;;;;;;;5.25;67.17;102911.63;5114318;28;20051;-72
2022/03/24 00:26:49;;;;;;;54.17;32.67;;;;;;;5.24;67.40;102909.00;5114395;28;20028;-72
2022/03/24 00:29:14;;;;;;;55.92;31.80;;;;;;;5.20;67.83;102910.63;5113680;28;20491;-72
2022/03/24 00:31:39;;;;;;;54.03;31.65;;;;;;;5.16;68.61;102908.72;5114238;28;20069;-72
2022/03/24 00:34:05;;;;;;;56.80;33.50;;;;;;;5.14;67.98;102907.81;5114599;28;20024;-72
2022/03/24 00:36:31;;;;;;;57.90;33.40;;;;;;;5.09;69.39;102910.25;5113446;28;20050;-72
2022/03/24 00:38:56;;;;;;;59.70;32.83;;;;;;;4.97;70.14;102896.03;5114382;28;20039;-72
2022/03/24 00:41:23;;;;;;;62.58;34.13;;;;;;;5.00;71.71;102896.16;5114154;28;20027;-72
2022/03/24 00:43:49;;;;;;;50.97;32.30;;;;;;;5.00;72.44;102911.66;5113215;28;20495;-73
2022/03/24 00:46:21;;;;;;;58.47;32.35;;;;;;;5.00;71.86;102897.03;5114063;28;20051;-72
2022/03/24 00:48:47;;;;;;;55.28;33.78;;;;;;;4.93;71.96;102895.94;5073552;28;20032;-72
2022/03/24 00:51:12;;;;;;;62.22;33.90;;;;;;;4.79;71.49;102894.63;5072697;28;20051;-72
2022/03/24 00:53:37;;;;;;;61.88;33.40;;;;;;;4.80;71.55;102898.97;5073317;28;20024;-72
2022/03/24 00:56:03;;;;;;;59.03;32.15;;;;;;;4.77;70.91;102898.84;5073708;28;20029;-72
2022/03/24 00:58:28;;;;;;;62.65;33.40;;;;;;;4.72;69.37;102905.59;5072324;28;20119;-72
2022/03/24 01:00:53;;;;;;;52.10;31.77;;;;;;;4.69;70.52;102898.59;5073032;28;20081;-72
2022/03/24 01:03:19;;;;;;;62.03;32.15;;;;;;;4.62;69.78;102888.03;5073242;28;20033;-72
2022/03/24 01:05:44;;;;;;;53.33;32.15;;;;;;;4.59;70.94;102890.50;5072611;28;20063;-72
2022/03/24 01:08:10;;;;;;;62.40;33.22;;;;;;;4.57;70.69;102890.44;5072987;28;20036;-72
2022/03/24 01:10:36;;;;;;;60.60;32.80;;;;;;;4.48;70.27;102884.97;5073143;28;20031;-72
2022/03/24 01:13:03;;;;;;;61.47;31.40;;;;;;;4.46;70.46;102894.38;5072506;28;20017;-72
2022/03/24 01:15:30;;;;;;;58.40;32.65;;;;;;;4.37;69.68;102892.34;5072678;28;20392;-72
2022/03/24 01:18:00;;;;;;;60.17;31.98;;;;;;;4.30;70.11;102884.34;5072055;28;20161;-72
2022/03/24 01:20:27;;;;;;;59.15;33.25;;;;;;;4.20;70.21;102875.38;5072923;28;20020;-72
2022/03/24 01:22:53;;;;;;;59.50;33.17;;;;;;;4.22;71.30;102884.06;5072819;28;20353;-72
2022/03/24 01:25:18;;;;;;;59.08;33.15;;;;;;;4.25;71.40;102881.59;5072009;28;20028;-72
2022/03/24 01:27:43;;;;;;;55.95;33.30;;;;;;;4.23;71.34;102886.69;5072509;28;20020;-70
2022/03/24 01:30:09;;;;;;;57.78;33.20;;;;;;;4.18;71.17;102877.03;5072814;28;20024;-70
2022/03/24 01:32:36;;;;;;;64.20;34.75;;;;;;;4.12;70.76;102884.53;5071724;28;20032;-70
2022/03/24 01:35:04;;;;;;;62.92;33.50;;;;;;;4.07;71.92;102886.09;5072601;28;20020;-70
2022/03/24 01:37:29;;;;;;;58.80;32.20;;;;;;;4.04;72.10;102880.81;5072327;28;20036;-72
2022/03/24 01:39:55;;;;;;;58.13;33.78;;;;;;;3.93;72.67;102867.53;5071698;28;20051;-72
2022/03/24 01:42:21;;;;;;;62.47;33.08;;;;;;;3.98;73.31;102877.19;5072233;28;20047;-72
2022/03/24 01:44:48;;;;;;;62.33;33.10;;;;;;;3.98;73.58;102866.84;5072191;28;20506;-72
2022/03/24 01:47:14;;;;;;;59.22;32.55;;;;;;;3.99;73.04;102866.06;5087200;28;20051;-72
2022/03/24 01:49:43;;;;;;;59.00;32.17;;;;;;;3.98;72.50;102866.84;5112881;28;20036;-72
2022/03/24 01:52:13;;;;;;;59.38;32.67;;;;;;;3.90;72.09;102860.56;5113080;28;20088;-72
2022/03/24 01:54:51;;;;;;;57.58;33.17;;;;;;;3.93;72.17;102865.84;5112003;28;20069;-72
2022/03/24 01:57:17;;;;;;;66.50;34.25;;;;;;;3.85;73.25;102858.63;5112631;28;20076;-72
2022/03/24 01:59:43;;;;;;;62.92;33.63;;;;;;;3.79;73.24;102851.53;5112772;27;20027;-72
2022/03/24 02:02:10;;;;;;;61.47;33.58;;;;;;;3.75;72.77;102853.13;5112233;27;20028;-72
2022/03/24 02:04:36;;;;;;;62.60;33.65;;;;;;;3.68;73.27;102840.81;5112786;28;20076;-73
2022/03/24 02:07:03;;;;;;;60.65;34.33;;;;;;;3.64;73.10;102844.13;5112617;28;20028;-72
2022/03/24 02:09:28;;;;;;;57.05;32.85;;;;;;;3.62;73.11;102845.75;5111387;28;20059;-72
2022/03/24 02:11:54;;;;;;;62.85;35.15;;;;;;;3.63;72.76;102855.28;5112388;28;20069;-72
2022/03/24 02:14:20;;;;;;;62.00;33.22;;;;;;;3.62;73.05;102852.63;5111374;28;20344;-72
2022/03/24 02:16:47;;;;;;;59.45;34.40;;;;;;;3.56;74.25;102844.66;5112502;28;20072;-72
2022/03/24 02:19:12;;;;;;;65.22;33.95;;;;;;;3.56;74.10;102854.97;5112018;28;20062;-72
2022/03/24 02:21:40;;;;;;;66.93;35.33;;;;;;;3.46;73.62;102858.91;5111405;28;20055;-72
2022/03/24 02:24:06;;;;;;;65.15;35.97;;;;;;;3.40;74.07;102854.41;5112563;28;20534;-72
2022/03/24 02:26:32;;;;;;;58.92;35.35;;;;;;;3.39;74.25;102852.63;5112029;28;20403;-73
2022/03/24 02:28:57;;;;;;;64.10;35.92;;;;;;;3.35;73.86;102845.59;5111359;28;20027;-72
2022/03/24 02:31:23;;;;;;;61.63;34.67;;;;;;;3.33;74.54;102849.81;5112116;28;20024;-72
2022/03/24 02:34:37;;;;;;;65.10;35.40;;;;;;;3.36;74.07;102849.94;5112051;28;20467;-72
2022/03/24 02:36:38;;;;;;;66.07;36.97;;;;;;;3.38;74.36;102852.59;5111328;28;20028;-72
2022/03/24 02:39:03;;;;;;;63.25;35.13;;;;;;;3.29;74.09;102845.38;5112314;28;20030;-72
2022/03/24 02:41:31;;;;;;;65.90;35.60;;;;;;;3.26;74.42;102851.28;5112018;28;20031;-72
2022/03/24 02:43:56;;;;;;;66.82;34.15;;;;;;;3.20;73.99;102853.63;5111364;28;20036;-72
2022/03/24 02:46:21;;;;;;;64.20;34.70;;;;;;;3.17;73.84;102855.19;5111700;28;20489;-73
2022/03/24 02:48:47;;;;;;;65.45;36.05;;;;;;;3.11;73.91;102855.00;5111873;28;20479;-72
2022/03/24 02:51:12;;;;;;;65.80;36.33;;;;;;;3.10;74.40;102858.34;5111157;28;20075;-72
2022/03/24 02:53:37;;;;;;;68.55;37.45;;;;;;;3.05;75.12;102859.06;5105732;28;20032;-72
2022/03/24 02:56:03;;;;;;;61.15;34.70;;;;;;;3.04;75.59;102854.75;5092209;28;20016;-72
2022/03/24 02:58:28;;;;;;;65.60;35.50;;;;;;;3.01;75.25;102851.16;5090325;28;20432;-72
2022/03/24 03:00:54;;;;;;;66.13;35.53;;;;;;;2.95;75.72;102848.34;5091604;28;20128;-72
2022/03/24 03:03:22;;;;;;;63.65;35.72;;;;;;;2.86;75.40;102842.81;5091428;28;20031;-72
2022/03/24 03:05:47;;;;;;;65.88;36.45;;;;;;;2.89;75.67;102851.53;5091146;28;20159;-72
2022/03/24 03:08:12;;;;;;;67.65;35.88;;;;;;;2.83;75.48;102856.44;5091276;28;20123;-72
2022/03/24 03:10:38;;;;;;;63.47;35.97;;;;;;;2.76;75.40;102852.75;5090290;28;20035;-72
2022/03/24 03:13:03;;;;;;;66.22;37.13;;;;;;;2.75;75.25;102853.56;5091796;28;20032;-72
2022/03/24 03:15:28;;;;;;;66.57;37.35;;;;;;;2.75;74.78;102853.56;5091262;28;20360;-72
2022/03/24 03:17:53;;;;;;;64.15;36.70;;;;;;;2.68;74.45;102843.84;5090563;28;20024;-72
2022/03/24 03:20:19;;;;;;;70.93;35.92;;;;;;;2.69;75.68;102858.47;5091279;28;20041;-72
2022/03/24 03:22:44;;;;;;;63.97;35.95;;;;;;;2.68;76.17;102854.13;5091132;28;20024;-72
2022/03/24 03:25:09;;;;;;;65.40;36.35;;;;;;;2.68;76.03;102853.22;5090783;28;20024;-72
2022/03/24 03:27:35;;;;;;;69.20;36.30;;;;;;;2.65;76.78;102854.00;5091667;28;20024;-72
2022/03/24 03:30:00;;;;;;;69.00;36.03;;;;;;;2.64;76.32;102848.78;5092479;28;20028;-72
2022/03/24 03:32:25;;;;;;;65.07;35.92;;;;;;;2.53;75.71;102845.78;5094137;28;20170;-72
2022/03/24 03:34:51;;;;;;;65.32;36.42;;;;;;;2.44;75.82;102838.53;5095131;28;20069;-72
2022/03/24 03:37:16;;;;;;;69.55;37.78;;;;;;;2.54;77.83;102855.25;5094866;28;20047;-72
2022/03/24 03:39:41;;;;;;;68.57;37.38;;;;;;;2.53;76.34;102850.91;5093995;28;20061;-72
2022/03/24 03:42:08;;;;;;;67.70;37.05;;;;;;;2.52;77.49;102854.31;5095190;28;20024;-72
2022/03/24 03:44:34;;;;;;;66.85;35.72;;;;;;;2.47;76.77;102855.81;5094834;28;20074;-72
2022/03/24 03:47:01;;;;;;;69.25;38.47;;;;;;;2.47;77.50;102856.69;5093885;28;20040;-72
2022/03/24 03:49:26;;;;;;;66.07;37.47;;;;;;;2.43;77.96;102856.50;5094680;28;20110;-72
2022/03/24 03:51:52;;;;;;;64.32;37.05;;;;;;;2.45;78.27;102855.75;5094799;28;20064;-72
2022/03/24 03:54:17;;;;;;;65.63;35.92;;;;;;;2.44;77.62;102848.81;5094125;28;20028;-72
2022/03/24 03:56:42;;;;;;;64.85;36.72;;;;;;;2.38;77.30;102848.56;5094742;28;20020;-72
2022/03/24 03:59:08;;;;;;;65.38;35.97;;;;;;;2.38;77.19;102853.72;5095024;28;20108;-72
2022/03/24 04:01:34;;;;;;;62.15;35.75;;;;;;;2.30;77.30;102855.97;5093853;28;20073;-72
2022/03/24 04:04:00;;;;;;;64.30;37.20;;;;;;;2.27;77.17;102861.00;5094529;28;20418;-72
2022/03/24 04:06:26;;;;;;;67.70;37.63;;;;;;;2.21;77.44;102858.16;5094327;28;20063;-72
2022/03/24 04:08:51;;;;;;;69.53;38.13;;;;;;;2.18;77.37;102852.00;5093829;28;20071;-72
2022/03/24 04:11:16;;;;;;;69.65;36.95;;;;;;;2.18;78.33;102860.59;5094504;28;20407;-72
2022/03/24 04:13:43;;;;;;;65.32;35.88;;;;;;;2.15;78.50;102868.19;5093817;28;20451;-72
2022/03/24 04:16:11;;;;;;;71.88;36.28;;;;;;;2.09;78.76;102858.53;5094724;28;20029;-72
2022/03/24 04:18:40;;;;;;;64.82;36.50;;;;;;;2.09;78.82;102861.09;5094230;28;20498;-72
2022/03/24 04:21:07;;;;;;;71.07;37.05;;;;;;;2.09;79.32;102858.53;5093707;28;20107;-72
2022/03/24 04:23:33;;;;;;;67.60;36.10;;;;;;;2.06;78.62;102857.47;5094287;28;20032;-72
2022/03/24 04:25:58;;;;;;;66.60;36.67;;;;;;;2.01;78.93;102856.41;5094240;28;20020;-72
2022/03/24 04:28:23;;;;;;;69.18;37.05;;;;;;;2.01;78.93;102862.44;5093259;28;20480;-72
2022/03/24 04:30:48;;;;;;;71.90;37.15;;;;;;;2.00;79.22;102860.69;5093934;28;20028;-72
2022/03/24 04:33:15;;;;;;;66.15;36.50;;;;;;;1.97;78.88;102855.41;5093960;28;20028;-72
2022/03/24 04:35:40;;;;;;;66.05;36.42;;;;;;;1.93;79.89;102858.66;5092984;28;20020;-72
2022/03/24 04:38:07;;;;;;;67.53;36.78;;;;;;;1.99;79.56;102852.88;5094434;28;20078;-72
2022/03/24 04:40:32;;;;;;;70.00;37.40;;;;;;;1.94;79.27;102855.25;5093653;28;20020;-72
2022/03/24 04:42:58;;;;;;;71.20;37.60;;;;;;;1.83;79.90;102848.75;5093000;28;20533;-72
2022/03/24 04:45:26;;;;;;;66.13;37.10;;;;;;;1.79;80.45;102855.44;5093710;28;20104;-72
2022/03/24 04:47:52;;;;;;;75.38;38.40;;;;;;;1.80;80.53;102854.66;5093481;28;20135;-72
2022/03/24 04:50:17;;;;;;;73.22;36.45;;;;;;;1.82;80.59;102860.72;5092779;28;20114;-72
2022/03/24 04:52:43;;;;;;;71.18;35.70;;;;;;;1.78;80.45;102860.53;5093540;28;20051;-72
2022/03/24 04:55:09;;;;;;;71.25;36.97;;;;;;;1.75;80.27;102857.84;5094090;28;20032;-72
2022/03/24 04:57:35;;;;;;;67.50;37.15;;;;;;;1.66;80.62;102855.72;5092897;28;20103;-72
2022/03/24 05:00:00;;;;;;;66.40;37.38;;;;;;;1.67;80.78;102859.16;5093531;28;20020;-72
2022/03/24 05:02:26;;;;;;;66.88;37.10;;;;;;;1.67;81.18;102860.06;5093276;28;20078;-72
2022/03/24 05:04:52;;;;;;;68.70;35.50;;;;;;;1.68;81.12;102863.50;5092523;28;20034;-72
2022/03/24 05:07:18;;;;;;;62.88;35.95;;;;;;;1.66;80.89;102860.84;5093397;28;20024;-72
2022/03/24 05:09:45;;;;;;;71.97;39.67;;;;;;;1.67;81.36;102864.31;5093174;28;20112;-72
2022/03/24 05:12:11;;;;;;;69.72;37.40;;;;;;;1.62;81.10;102866.69;5092521;28;20375;-72
2022/03/24 05:14:36;;;;;;;73.07;38.35;;;;;;;1.65;80.96;102864.25;5093167;28;20032;-72
2022/03/24 05:17:01;;;;;;;70.78;37.50;;;;;;;1.64;81.89;102867.63;5092563;28;20060;-72
2022/03/24 05:19:27;;;;;;;64.25;37.00;;;;;;;1.63;80.88;102871.91;5092862;28;20024;-72
2022/03/24 05:21:53;;;;;;;75.13;36.20;;;;;;;1.58;81.88;102864.78;5093338;28;20059;-72
2022/03/24 05:24:18;;;;;;;68.68;35.90;;;;;;;1.61;82.14;102865.81;5092385;28;20044;-71
2022/03/24 05:26:44;;;;;;;67.93;36.08;;;;;;;1.56;82.55;102867.28;5092829;28;20423;-72
2022/03/24 05:29:10;;;;;;;71.18;35.83;;;;;;;1.58;82.10;102878.50;5092946;28;20028;-72
2022/03/24 05:31:35;;;;;;;79.43;38.72;;;;;;;1.54;82.53;102875.75;5092245;28;20027;-72
2022/03/24 05:34:00;;;;;;;69.38;37.67;;;;;;;1.36;83.09;102850.06;5092715;28;20122;-72
2022/03/24 05:36:26;;;;;;;68.55;38.05;;;;;;;1.53;82.85;102873.97;5092831;28;20055;-72
2022/03/24 05:38:51;;;;;;;69.63;37.75;;;;;;;1.51;82.78;102868.75;5092295;28;20039;-72
2022/03/24 05:41:17;;;;;;;71.65;37.97;;;;;;;1.55;83.50;102880.06;5093003;28;20450;-72
2022/03/24 05:44:02;;;;;;;69.55;37.15;;;;;;;1.51;83.63;102873.03;5092625;28;20445;-72
2022/03/24 05:46:44;;;;;;;70.07;36.72;;;;;;;1.54;83.54;102888.59;5091441;28;20024;-72
2022/03/24 05:49:15;;;;;;;72.63;37.92;;;;;;;1.57;83.99;102883.56;5092707;28;20020;-72
2022/03/24 05:51:45;;;;;;;67.90;37.28;;;;;;;1.57;84.42;102876.75;5092243;28;20111;-72
2022/03/24 05:54:12;;;;;;;74.35;38.72;;;;;;;1.61;84.78;102891.50;5091331;28;20056;-72
2022/03/24 05:56:37;;;;;;;69.70;37.38;;;;;;;1.61;84.31;102882.91;5092423;28;20028;-72
2022/03/24 05:59:03;;;;;;;71.55;37.42;;;;;;;1.68;84.77;102892.66;5092680;28;20365;-72
2022/03/24 06:01:29;;;;;;;75.95;39.38;;;;;;;1.69;84.09;102897.00;5091582;28;20031;-72
2022/03/24 06:03:55;;;;;;;71.05;38.35;;;;;;;1.69;84.16;102888.41;5092440;28;20098;-72
2022/03/24 06:06:22;;;;;;;74.95;37.65;;;;;;;1.71;84.67;102895.38;5091359;28;20104;-72
2022/03/24 06:08:52;;;;;;;71.45;38.33;;;;;;;1.68;83.82;102884.97;5092138;28;20028;-72
2022/03/24 06:11:18;;;;;;;73.35;37.88;;;;;;;1.79;84.18;102901.75;5092152;28;20063;-71
2022/03/24 06:13:45;;;;;;;77.82;39.00;;;;;;;1.84;83.66;102896.81;5091172;28;20364;-72
2022/03/24 06:16:13;;;;;;;71.72;38.45;;;;;;;1.86;83.49;102900.31;5092247;28;20024;-72
2022/03/24 06:18:39;;;;;;;79.38;36.78;;;;;;;1.93;83.44;102904.06;5092000;28;20030;-72
2022/03/24 06:21:05;;;;;;;77.75;39.20;;;;;;;2.02;84.04;102905.34;5091613;28;20386;-72
2022/03/24 06:23:31;;;;;;;74.88;39.10;;;;;;;2.05;83.47;102900.34;5091780;28;20546;-72
2022/03/24 06:25:56;;;;;;;76.45;39.97;;;;;;;2.11;84.16;102892.91;5091795;28;20119;-72
2022/03/24 06:28:21;;;;;;;74.05;38.28;;;;;;;2.16;83.57;102892.22;5090842;28;20032;-72
2022/03/24 06:30:48;;;;;;;75.20;38.95;;;;;;;2.23;83.69;102897.72;5091946;28;20028;-72
2022/03/24 06:33:16;;;;;;;70.43;37.97;;;;;;;2.32;84.06;102900.69;5091963;28;20046;-72
2022/03/24 06:35:43;;;;;;;73.75;37.47;;;;;;;2.41;82.59;102902.75;5090922;28;20028;-72
2022/03/24 06:38:08;;;;;;;77.03;38.70;;;;;;;2.49;82.71;102897.97;5092098;28;20027;-72
2022/03/24 06:40:33;;;;;;;76.85;38.47;;;;;;;2.52;82.31;102885.22;5091605;28;20023;-72
2022/03/24 06:42:59;;;;;;;77.75;39.10;;;;;;;2.68;83.00;102897.00;5090921;28;20027;-72
2022/03/24 06:45:25;;;;;;;74.13;38.75;;;;;;;2.76;82.93;102893.94;5091800;28;20020;-72
2022/03/24 06:47:50;;;;;;;72.43;38.90;;;;;;;2.85;82.54;102898.63;5091558;28;20096;-72
2022/03/24 06:50:15;;;;;;;84.10;38.20;;;;;;;2.94;82.25;102896.41;5090873;28;20487;-72
2022/03/24 06:52:42;;;;;;;73.53;38.15;;;;;;;3.03;81.23;102896.75;5091444;28;20024;-72
2022/03/24 06:55:08;;;;;;;71.15;38.72;;;;;;;3.07;82.59;102892.63;5091723;28;20028;-72
2022/03/24 06:57:36;;;;;;;69.57;39.47;;;;;;;3.20;81.27;102899.13;5090529;28;20028;-72
2022/03/24 07:00:02;;;;;;;75.30;39.65;;;;;;;3.29;80.30;102905.53;5091782;28;20090;-72
2022/03/24 07:02:28;;;;;;;77.85;41.15;;;;;;;3.40;80.32;102898.25;5091198;28;20089;-72
2022/03/24 07:04:53;;;;;;;74.97;40.35;;;;;;;3.49;79.82;102898.56;5093895;28;20025;-72
2022/03/24 07:07:19;;;;;;;71.65;39.55;;;;;;;3.59;78.79;102892.06;5095425;28;20081;-72
2022/03/24 07:09:44;;;;;;;82.03;42.67;;;;;;;3.71;79.80;102907.16;5094602;28;20103;-72
2022/03/24 07:12:09;;;;;;;73.82;40.55;;;;;;;3.81;78.15;102896.34;5095649;28;20028;-72
2022/03/24 07:14:35;;;;;;;77.43;41.17;;;;;;;4.02;79.50;102898.81;5095895;28;20039;-72
2022/03/24 07:17:00;;;;;;;71.07;39.35;;;;;;;4.20;78.91;102896.03;5094858;28;20023;-72
2022/03/24 07:19:25;;;;;;;76.72;42.90;;;;;;;4.45;78.80;102903.81;5095431;28;20036;-72
2022/03/24 07:21:50;;;;;;;81.78;42.85;;;;;;;4.62;78.59;102900.94;5095323;28;20035;-72
2022/03/24 07:24:16;;;;;;;74.18;39.42;;;;;;;4.80;74.69;102904.13;5094569;28;20396;-72
2022/03/24 07:26:42;;;;;;;70.80;40.88;;;;;;;5.04;75.35;102905.78;5095091;28;20038;-72
2022/03/24 07:29:10;;;;;;;72.68;41.22;;;;;;;5.16;74.35;102909.59;5095612;28;20024;-72
2022/03/24 07:31:36;;;;;;;63.67;36.38;;;;;;;5.28;73.08;102901.38;5094766;28;20023;-72
2022/03/24 07:34:02;;;;;;;72.82;39.05;;;;;;;5.44;72.28;102912.19;5095386;28;20032;-72
2022/03/24 07:36:27;;;;;;;61.10;35.35;;;;;;;5.52;70.16;102906.41;5094943;28;20028;-72
2022/03/24 07:38:54;;;;;;;74.93;37.22;;;;;;;5.69;71.00;102911.22;5094226;28;20078;-72
2022/03/24 07:41:20;;;;;;;66.43;36.25;;;;;;;5.89;67.80;102901.47;5095052;28;20020;-72
2022/03/24 07:43:46;;;;;;;63.88;35.58;;;;;;;6.08;67.61;102898.56;5094994;28;20020;-72
2022/03/24 07:46:11;;;;;;;63.30;35.92;;;;;;;6.28;67.13;102896.56;5094181;28;20432;-72
2022/03/24 07:48:38;;;;;;;64.75;36.08;;;;;;;6.48;67.40;102897.97;5094566;28;20146;-72
2022/03/24 07:51:05;;;;;;;63.78;33.97;;;;;;;6.65;65.34;102905.28;5095187;28;20020;-72
2022/03/24 07:53:57;;;;;;;66.32;35.97;;;;;;;6.80;66.05;102895.28;5093696;28;20038;-72
2022/03/24 07:56:24;;;;;;;69.65;34.45;;;;;;;6.93;63.93;102891.28;5087942;28;20174;-72
2022/03/24 07:58:50;;;;;;;60.47;35.13;;;;;;;6.95;63.48;102905.19;5093883;28;20036;-72
2022/03/24 08:01:24;;;;;;;63.75;35.15;;;;;;;7.03;64.32;102909.72;5094688;28;20425;-72
2022/03/24 08:03:51;;;;;;;;;;;;;;;7.10;66.22;102907.28;5095023;28;20493;-72
2022/03/24 08:06:16;;;;;;;63.60;35.40;;;;;;;7.41;61.39;102906.25;5093905;28;19916;-72
2022/03/24 08:08:42;;;;;;;57.10;33.00;;;;;;;7.61;60.82;102901.50;5094511;28;20088;-72
2022/03/24 08:11:07;;;;;;;70.35;36.00;;;;;;;7.70;61.24;102899.13;5094717;28;20039;-72
2022/03/24 08:13:32;;;;;;;62.70;34.42;;;;;;;7.86;61.83;102900.31;5093474;28;20020;-72
2022/03/24 08:15:57;;;;;;;60.78;34.85;;;;;;;7.96;60.94;102907.44;5093515;28;20029;-72
2022/03/24 08:18:23;;;;;;;59.70;34.63;;;;;;;8.10;59.48;102910.31;5094131;28;20032;-72
2022/03/24 08:20:49;;;;;;;58.40;34.05;;;;;;;8.27;59.72;102908.03;5093422;28;20425;-72
2022/03/24 08:23:14;;;;;;;60.35;34.08;;;;;;;8.38;58.15;102906.56;5094418;28;20039;-72
2022/03/24 08:25:42;;;;;;;65.40;36.50;;;;;;;8.54;56.98;102905.13;5094163;28;20475;-72
2022/03/24 08:28:08;;;;;;;61.10;34.55;;;;;;;8.65;55.43;102909.66;5093654;28;20031;-72
2022/03/24 08:30:33;;;;;;;58.10;33.90;;;;;;;8.83;55.65;102910.84;5094003;28;20499;-72
2022/03/24 08:32:59;;;;;;;60.42;33.92;;;;;;;8.98;54.23;102911.06;5094010;28;20078;-72
2022/03/24 08:35:24;;;;;;;54.13;30.42;;;;;;;9.15;52.14;102908.72;5092953;28;20035;-72
2022/03/24 08:37:50;;;;;;;51.97;31.65;;;;;;;9.33;51.17;102911.63;5094079;28;20024;-72
2022/03/24 08:40:15;;;;;;;51.92;30.48;;;;;;;9.52;49.85;102915.38;5093979;28;20027;-72
2022/03/24 08:42:42;;;;;;;54.10;30.73;;;;;;;9.75;47.86;102907.00;5093016;28;20024;-72
2022/03/24 08:45:10;;;;;;;52.53;30.90;;;;;;;9.90;47.44;102907.16;5094173;28;20111;-72
2022/03/24 08:47:37;;;;;;;52.10;29.65;;;;;;;10.02;48.21;102909.91;5093602;28;20048;-73
2022/03/24 08:50:04;;;;;;;53.67;30.73;;;;;;;10.24;46.77;102908.44;5093509;28;20024;-72
2022/03/24 08:52:29;;;;;;;49.50;28.27;;;;;;;10.44;44.80;102910.41;5093762;28;20134;-72
2022/03/24 08:54:55;;;;;;;49.22;29.02;;;;;;;10.54;43.31;102904.44;5094002;28;20519;-72
2022/03/24 08:57:26;;;;;;;52.03;29.67;;;;;;;10.60;43.85;102903.63;5092861;28;20034;-72
2022/03/24 08:59:52;;;;;;;50.22;30.35;;;;;;;10.77;44.88;102905.50;5093553;28;20020;-72
2022/03/24 09:02:18;;;;;;;47.50;29.35;;;;;;;10.83;43.34;102904.69;5092698;28;20031;-73
2022/03/24 09:04:43;;;;;;;49.45;28.60;;;;;;;10.98;42.86;102904.78;5093518;28;20028;-72
2022/03/24 09:07:09;;;;;;;48.38;29.00;;;;;;;11.00;42.85;102905.69;5093659;28;20502;-72
2022/03/24 09:09:34;;;;;;;48.33;28.65;;;;;;;11.16;42.22;102909.28;5092697;28;20078;-71
2022/03/24 09:11:59;;;;;;;51.80;28.63;;;;;;;11.32;42.52;102912.00;5093425;28;20066;-71
2022/03/24 09:14:25;;;;;;;49.75;26.95;;;;;;;11.49;40.15;102900.78;5093070;28;20020;-70
2022/03/24 09:16:50;;;;;;;51.35;29.65;;;;;;;11.80;41.21;102910.50;5092466;28;20042;-70
2022/03/24 09:19:16;;;;;;;49.63;29.85;;;;;;;11.95;40.37;102911.50;5093044;28;20103;-70
2022/03/24 09:21:42;;;;;;;49.97;28.05;;;;;;;12.08;39.03;102919.38;5093146;28;20077;-71
2022/03/24 09:24:08;;;;;;;38.42;23.95;;;;;;;12.17;38.14;102914.19;5092736;28;20414;-70
2022/03/24 09:26:33;;;;;;;40.33;25.85;;;;;;;12.28;38.28;102914.22;5092404;28;20487;-71
2022/03/24 09:28:59;;;;;;;41.13;25.00;;;;;;;12.35;37.29;102908.13;5092341;28;20073;-71
2022/03/24 09:31:24;;;;;;;41.40;25.52;;;;;;;12.52;37.67;102914.25;5091949;28;20023;-70
2022/03/24 09:33:50;;;;;;;37.70;23.17;;;;;;;12.68;36.54;102911.66;5092836;28;20091;-70
2022/03/24 09:36:15;;;;;;;39.47;24.40;;;;;;;12.83;35.03;102909.06;5092985;28;20490;-70
2022/03/24 09:38:40;;;;;;;34.17;23.42;;;;;;;12.87;35.18;102908.16;5092077;28;20058;-70
2022/03/24 09:41:06;;;;;;;39.33;24.08;;;;;;;12.98;36.30;102922.16;5093116;28;20491;-71
2022/03/24 09:43:34;;;;;;;41.78;25.58;;;;;;;13.11;35.41;102910.78;5093021;28;20027;-70
2022/03/24 09:46:01;;;;;;;37.28;24.88;;;;;;;13.23;34.31;102909.88;5091723;28;20055;-70
2022/03/24 09:48:26;;;;;;;32.75;22.60;;;;;;;13.32;34.48;102920.38;5092228;28;20043;-70
2022/03/24 09:50:52;;;;;;;34.95;23.38;;;;;;;13.44;33.94;102918.59;5092640;28;20028;-70
2022/03/24 09:53:18;;;;;;;37.25;23.25;;;;;;;13.51;32.79;102909.88;5091769;28;20023;-71
2022/03/24 09:55:46;;;;;;;38.35;24.25;;;;;;;13.63;33.98;102907.19;5092231;28;20111;-70
2022/03/24 09:58:12;;;;;;;36.22;25.08;;;;;;;13.77;34.33;102905.41;5092448;28;20026;-72
2022/03/24 10:00:37;;;;;;;34.78;23.02;;;;;;;13.90;33.13;102910.59;5091448;28;20115;-72
2022/03/24 10:03:22;;;;;;;34.60;23.98;;;;;;;13.96;34.69;102914.06;5092776;28;20027;-72
2022/03/24 10:05:59;;;;;;;35.97;23.33;;;;;;;14.02;32.30;102906.16;5091652;28;20034;-71
2022/03/24 10:08:26;;;;;;;33.33;22.30;;;;;;;14.12;32.10;102909.59;5092160;28;20021;-71
2022/03/24 10:10:57;;;;;;;32.03;22.17;;;;;;;14.13;32.22;102908.75;5092176;28;20028;-70
2022/03/24 10:13:25;;;;;;;32.35;21.83;;;;;;;14.25;31.97;102906.03;5091259;28;20476;-71
2022/03/24 10:15:51;;;;;;;36.45;23.60;;;;;;;14.40;31.72;102912.06;5092082;28;20417;-70
2022/03/24 10:18:16;;;;;;;33.22;22.60;;;;;;;14.51;31.18;102907.66;5091916;28;20024;-71
2022/03/24 10:20:42;;;;;;;33.67;21.33;;;;;;;14.62;31.25;102895.34;5091039;28;20032;-70
2022/03/24 10:23:07;;;;;;;33.53;22.75;;;;;;;14.77;30.80;102896.09;5092258;28;20042;-70
2022/03/24 10:25:36;;;;;;;40.22;25.17;;;;;;;14.80;30.26;102898.69;5091857;28;20062;-72
2022/03/24 10:28:21;;;;;;;32.33;21.83;;;;;;;14.84;31.56;102893.38;5091646;28;20056;-72
2022/03/24 10:30:54;;;;;;;30.95;20.23;;;;;;;14.94;28.41;102894.16;5091992;28;20024;-73
2022/03/24 10:33:26;;;;;;;34.15;20.83;;;;;;;15.00;29.14;102888.88;5091784;28;20111;-73
2022/03/24 10:36:17;;;;;;;31.80;20.80;;;;;;;15.07;27.93;102892.31;5090949;28;20077;-72
2022/03/24 10:38:46;;;;;;;32.17;20.88;;;;;;;15.14;29.93;102887.00;5091385;28;20020;-70
2022/03/24 10:41:21;;;;;;;29.63;20.90;;;;;;;15.32;30.45;102879.78;5090998;28;20051;-70
2022/03/24 10:43:49;;;;;;;28.77;19.38;;;;;;;15.44;29.29;102895.44;5091677;28;20032;-71
2022/03/24 10:46:16;;;;;;;27.35;19.50;;;;;;;15.51;28.99;102885.72;5091653;28;20023;-73
2022/03/24 10:48:43;;;;;;;31.75;19.75;;;;;;;15.52;27.96;102885.69;5090642;28;20040;-70
2022/03/24 10:51:09;;;;;;;34.03;21.63;;;;;;;15.54;28.16;102890.94;5091849;28;20044;-71
2022/03/24 10:53:42;;;;;;;31.77;20.73;;;;;;;15.55;29.70;102884.78;5092012;28;20475;-70
2022/03/24 10:56:19;;;;;;;35.70;18.52;;;;;;;15.65;28.68;102875.91;5091087;28;20468;-70
2022/03/24 10:58:55;;;;;;;30.20;19.83;;;;;;;15.72;27.61;102879.34;5091536;28;20036;-71
2022/03/24 11:01:23;;;;;;;32.75;20.45;;;;;;;15.87;28.30;102885.28;5091414;28;20030;-71
2022/03/24 11:03:49;;;;;;;31.27;20.27;;;;;;;15.99;26.80;102878.13;5090817;28;20055;-70
2022/03/24 11:06:17;;;;;;;28.73;19.25;;;;;;;16.05;26.62;102878.91;5091458;28;20048;-71
2022/03/24 11:08:44;;;;;;;29.02;18.65;;;;;;;16.15;25.68;102882.28;5090594;28;20035;-71
2022/03/24 11:11:15;;;;;;;32.63;19.58;;;;;;;16.20;25.96;102883.09;5091530;28;20028;-70
2022/03/24 11:13:46;;;;;;;29.85;19.67;;;;;;;16.26;27.84;102883.00;5091156;28;20032;-71